Bookmark and Share
Track history (hours):
 

Taisho Maru

Last reported at 2014-Apr-18 10:32 UTC. Time now 2014-Apr-19 05:04 UTC.
Position N 34°36' E 134°54'.

Length 93 m; draft 4.8 m.

Type: Cargo ship. MMSI: 431300084.

NotesDate/timePositionNaut miles runAvg speedWind from/ knotsBaromVisibWave heightAir tempDewpointWater temp
2014-Apr-18 10:32N 34°36' E 134°54'1212.7
2014-Apr-18 09:33N 34°36' E 135°09'1312.4
2014-Apr-18 08:33N 34°39' E 135°24'3 2.3
2014-Apr-18 07:24N 34°40' E 135°27'0 0.0
2014-Apr-18 06:18N 34°40' E 135°27'0 0.0
2014-Apr-18 05:24N 34°40' E 135°27'0 0.0
2014-Apr-18 04:24N 34°40' E 135°27'0 0.0
2014-Apr-17 22:03N 34°40' E 135°27'1 2.2
2014-Apr-17 21:33N 34°39' E 135°26'6 6.1
2014-Apr-17 20:30N 34°36' E 135°19'0 0.0
2014-Apr-17 19:24N 34°36' E 135°19'0 0.1
2014-Apr-17 18:31N 34°36' E 135°19'4 3.9
2014-Apr-17 17:33N 34°35' E 135°15'1211.9
2014-Apr-17 16:33N 34°37' E 135°00'1512.2
2014-Apr-17 15:22N 34°40' E 134°43'6 0.4
2014-Apr-17 01:15N 34°39' E 134°50'1115.2
2014-Apr-17 00:33N 34°37' E 135°03'1312.7
2014-Apr-16 23:32N 34°24' E 135°02'1414.1
2014-Apr-16 22:33N 34°10' E 134°58'9 0.2
2014-Apr-15 03:32N 34°14' E 135°08'0 0.0
2014-Apr-15 02:32N 34°14' E 135°08'0 0.0
2014-Apr-15 01:32N 34°14' E 135°08'0 0.0
2014-Apr-15 00:32N 34°14' E 135°08'0 0.0
2014-Apr-14 22:32N 34°14' E 135°08'0 0.0
2014-Apr-14 21:32N 34°14' E 135°08'0 0.0
2014-Apr-14 20:32N 34°14' E 135°08'0 0.0
2014-Apr-14 19:32N 34°14' E 135°08'0 0.0
2014-Apr-14 18:32N 34°14' E 135°08'0 0.0
2014-Apr-14 17:32N 34°14' E 135°08'0 0.1
2014-Apr-14 16:32N 34°14' E 135°08'0 0.0
2014-Apr-14 14:32N 34°14' E 135°08'0 0.0
2014-Apr-14 13:32N 34°14' E 135°08'0 0.0
2014-Apr-14 11:32N 34°14' E 135°08'0 0.0
2014-Apr-14 10:32N 34°14' E 135°08'0 0.0
2014-Apr-14 09:32N 34°14' E 135°08'0 0.0
2014-Apr-14 08:32N 34°14' E 135°08'0 0.0
2014-Apr-14 07:32N 34°14' E 135°08'0 0.0
2014-Apr-14 06:32N 34°14' E 135°08'0 0.0
2014-Apr-14 05:32N 34°14' E 135°08'0 0.0
2014-Apr-13 22:32N 34°14' E 135°08'0 0.0
2014-Apr-13 21:32N 34°14' E 135°08'0 0.0
2014-Apr-13 20:32N 34°14' E 135°08'0 0.0
2014-Apr-13 19:29N 34°14' E 135°08'0 0.0
2014-Apr-13 18:32N 34°14' E 135°08'0 0.0
2014-Apr-13 17:32N 34°14' E 135°08'0 0.0
2014-Apr-13 16:32N 34°14' E 135°08'0 0.0
2014-Apr-13 15:32N 34°14' E 135°08'0 0.0
2014-Apr-13 14:32N 34°14' E 135°08'0 0.0
2014-Apr-13 13:32N 34°14' E 135°08'0 0.0
2014-Apr-13 12:32N 34°14' E 135°08'0 0.0
2014-Apr-13 11:32N 34°14' E 135°08'0 0.0
2014-Apr-13 10:32N 34°14' E 135°08'0 0.0
2014-Apr-13 09:32N 34°14' E 135°08'0 0.0
2014-Apr-13 08:32N 34°14' E 135°08'0 0.0
2014-Apr-13 07:32N 34°14' E 135°08'0 0.0
2014-Apr-13 06:33N 34°14' E 135°08'5 5.4
2014-Apr-13 05:33N 34°10' E 135°03'21810.8
2014-Apr-12 09:18N 34°54' E 139°22'1013.6
2014-Apr-12 08:33N 35°00' E 139°32'1413.9
2014-Apr-12 07:33N 35°09' E 139°45'1212.1
2014-Apr-12 06:34N 35°21' E 139°42'1312.5
2014-Apr-12 05:33N 35°30' E 139°54'5 4.8
2014-Apr-12 04:33N 35°28' E 139°59'0 0.0
2014-Apr-12 03:33N 35°28' E 139°59'0 0.0
2014-Apr-12 02:27N 35°28' E 139°59'0 0.0
2014-Apr-12 00:30N 35°28' E 139°59'2 2.3
2014-Apr-11 23:33N 35°29' E 139°57'1211.7
2014-Apr-11 22:33N 35°26' E 139°43'4 3.3
2014-Apr-11 21:28N 35°29' E 139°40'0 0.0
2014-Apr-11 20:34N 35°29' E 139°40'0 0.0
2014-Apr-11 19:31N 35°29' E 139°40'0 0.0
2014-Apr-11 18:31N 35°29' E 139°40'0 0.0
2014-Apr-11 17:31N 35°29' E 139°40'0 0.0
2014-Apr-11 16:31N 35°29' E 139°40'0 0.0
2014-Apr-11 15:31N 35°29' E 139°40'0 0.0
2014-Apr-11 14:31N 35°29' E 139°40'0 0.0
2014-Apr-11 13:34N 35°29' E 139°40'0 0.0
2014-Apr-11 12:31N 35°29' E 139°40'0 0.0
2014-Apr-11 11:31N 35°29' E 139°40'0 0.0
2014-Apr-11 10:31N 35°29' E 139°40'0 0.0
2014-Apr-11 09:34N 35°29' E 139°40'0 0.0
2014-Apr-11 08:34N 35°29' E 139°40'0 0.0
2014-Apr-11 07:34N 35°29' E 139°40'0 0.0
2014-Apr-11 06:31N 35°29' E 139°40'0 0.0
2014-Apr-11 05:31N 35°29' E 139°40'0 0.0
2014-Apr-11 04:31N 35°29' E 139°40'0 0.0
2014-Apr-11 03:31N 35°29' E 139°40'0 0.0
2014-Apr-11 02:31N 35°29' E 139°40'4 4.0
2014-Apr-11 01:33N 35°25' E 139°42'1211.6
2014-Apr-11 00:32N 35°14' E 139°47'  
2014-Apr-08 19:32N 34°01' E 134°55'1413.8
2014-Apr-08 18:33N 34°14' E 134°58'1212.2
2014-Apr-08 17:33N 34°25' E 135°04'1413.6
2014-Apr-08 16:33N 34°34' E 135°17'10 9.4
2014-Apr-08 15:31N 34°40' E 135°27'0 0.0
2014-Apr-08 14:13N 34°40' E 135°27'0 0.0
2014-Apr-08 11:07N 34°40' E 135°27'  

Dump ship's entire track history

sailing weather and tide predictions

Taisho Maru — JI3307 — position and weather